createdAt,value
2018-09-10T00:01:58.253Z,85.70
2018-09-10T00:04:26.862Z,84.80
2018-09-10T00:06:55.424Z,84.20
2018-09-10T00:09:24.012Z,85.00
2018-09-10T00:11:52.568Z,85.80
2018-09-10T00:14:21.250Z,85.30
2018-09-10T00:16:49.888Z,86.40
2018-09-10T00:19:18.458Z,86.90
2018-09-10T00:21:47.114Z,87.40
2018-09-10T00:24:15.672Z,87.60
2018-09-10T00:26:44.271Z,87.30
2018-09-10T00:29:12.834Z,87.00
2018-09-10T00:31:41.440Z,86.30
2018-09-10T00:34:10.021Z,87.10
2018-09-10T00:36:38.632Z,88.90
2018-09-10T00:39:10.778Z,85.40
2018-09-10T00:41:39.749Z,86.00
2018-09-10T00:44:08.446Z,86.90
2018-09-10T00:46:37.142Z,84.70
2018-09-10T00:49:05.701Z,85.20
2018-09-10T00:51:34.288Z,85.60
2018-09-10T00:54:02.917Z,85.10
2018-09-10T00:56:31.546Z,84.00
2018-09-10T00:59:00.120Z,85.00
2018-09-10T01:01:28.853Z,86.00
2018-09-10T01:03:57.420Z,88.50
2018-09-10T01:06:26.008Z,88.40
2018-09-10T01:08:54.576Z,86.30
2018-09-10T01:11:23.197Z,87.20
2018-09-10T01:13:51.782Z,87.10
2018-09-10T01:16:20.892Z,86.10
2018-09-10T01:18:49.465Z,87.30
2018-09-10T01:21:18.145Z,87.40
2018-09-10T01:23:46.711Z,88.60
2018-09-10T01:26:15.329Z,88.80
2018-09-10T01:28:43.888Z,88.60
2018-09-10T01:31:12.472Z,87.90
2018-09-10T01:33:46.379Z,88.20
2018-09-10T01:36:15.041Z,89.60
2018-09-10T01:38:43.600Z,88.30
2018-09-10T01:41:12.185Z,88.90
2018-09-10T01:43:40.748Z,90.00
2018-09-10T01:46:09.381Z,89.70
2018-09-10T01:48:37.957Z,90.00
2018-09-10T01:51:06.570Z,87.70
2018-09-10T01:53:35.201Z,86.80
2018-09-10T01:56:03.838Z,86.80
2018-09-10T01:58:32.428Z,87.90
2018-09-10T02:01:01.054Z,87.80
2018-09-10T02:03:29.680Z,89.70
2018-09-10T02:05:58.250Z,90.00
2018-09-10T02:08:26.838Z,90.00
2018-09-10T02:10:55.437Z,90.30
2018-09-10T02:13:24.021Z,89.70
2018-09-10T02:15:52.957Z,88.80
2018-09-10T02:18:22.791Z,88.60
2018-09-10T02:20:51.599Z,90.10
2018-09-10T02:23:20.271Z,89.50
2018-09-10T02:25:48.839Z,89.70
2018-09-10T02:28:17.433Z,89.30
2018-09-10T02:30:46.001Z,90.20
2018-09-10T02:33:14.597Z,91.70
2018-09-10T02:35:43.157Z,90.80
2018-09-10T02:38:11.784Z,90.50
2018-09-10T02:40:40.365Z,90.80
2018-09-10T02:43:08.964Z,90.70
2018-09-10T02:45:37.521Z,90.20
2018-09-10T02:48:06.262Z,90.80
2018-09-10T02:50:34.827Z,91.20
2018-09-10T02:53:03.474Z,91.70
2018-09-10T02:55:32.161Z,90.90
2018-09-10T02:58:00.836Z,91.60
2018-09-10T03:00:29.398Z,89.20
2018-09-10T03:02:58.030Z,89.60
2018-09-10T03:05:26.606Z,91.10
2018-09-10T03:07:55.276Z,90.30
2018-09-10T03:10:23.913Z,90.30
2018-09-10T03:12:53.620Z,90.40
2018-09-10T03:15:22.640Z,90.50
2018-09-10T03:17:51.679Z,90.60
2018-09-10T03:20:20.393Z,91.10
2018-09-10T03:22:49.036Z,91.30
2018-09-10T03:25:17.677Z,90.90
2018-09-10T03:27:46.269Z,91.30
2018-09-10T03:30:15.006Z,91.10
2018-09-10T03:32:43.582Z,90.70
2018-09-10T03:35:12.200Z,90.40
2018-09-10T03:37:40.792Z,90.80
2018-09-10T03:40:09.640Z,90.80
2018-09-10T03:42:38.212Z,91.50
2018-09-10T03:45:06.986Z,90.80
2018-09-10T03:47:35.552Z,90.90
2018-09-10T03:50:04.283Z,90.90
2018-09-10T03:52:33.594Z,90.80
2018-09-10T03:55:02.191Z,91.00
2018-09-10T03:57:30.773Z,91.70
2018-09-10T03:59:59.389Z,90.80
2018-09-10T04:02:27.950Z,91.80
2018-09-10T04:04:56.548Z,91.00
2018-09-10T04:07:25.127Z,90.90
2018-09-10T04:09:53.737Z,91.20
2018-09-10T04:12:22.333Z,91.90
2018-09-10T04:14:51.018Z,92.40
2018-09-10T04:17:19.708Z,92.60
2018-09-10T04:19:48.238Z,91.30
2018-09-10T04:22:16.809Z,91.70
2018-09-10T04:24:45.408Z,91.20
2018-09-10T04:27:14.013Z,91.20
2018-09-10T04:29:42.669Z,91.30
2018-09-10T04:32:11.274Z,90.80
2018-09-10T04:34:39.858Z,91.70
2018-09-10T04:37:08.477Z,91.40
2018-09-10T04:39:37.053Z,91.80
2018-09-10T04:42:05.717Z,91.90
2018-09-10T04:44:34.272Z,92.70
2018-09-10T04:47:03.009Z,91.80
2018-09-10T04:49:31.602Z,92.50
2018-09-10T04:52:00.198Z,92.60
2018-09-10T04:54:28.769Z,92.40
2018-09-10T04:56:57.413Z,91.20
2018-09-10T04:59:26.018Z,91.90
2018-09-10T05:01:54.961Z,91.50
2018-09-10T05:04:23.580Z,91.30
2018-09-10T05:06:52.186Z,91.50
2018-09-10T05:09:20.867Z,92.10
2018-09-10T05:11:50.106Z,92.20
2018-09-10T05:14:18.760Z,92.20
2018-09-10T05:16:47.452Z,93.20
2018-09-10T05:19:16.018Z,93.50
2018-09-10T05:21:44.605Z,93.20
2018-09-10T05:24:13.230Z,93.80
2018-09-10T05:26:41.820Z,91.70
2018-09-10T05:29:10.399Z,92.50
2018-09-10T05:31:39.002Z,93.10
2018-09-10T05:34:07.577Z,94.10
2018-09-10T05:36:36.218Z,92.90
2018-09-10T05:39:06.092Z,93.50
2018-09-10T05:41:34.810Z,93.60
2018-09-10T05:44:03.378Z,92.90
2018-09-10T05:46:31.976Z,92.40
2018-09-10T05:49:00.540Z,93.50
2018-09-10T05:51:29.108Z,92.30
2018-09-10T05:53:58.698Z,92.00
2018-09-10T05:56:27.388Z,94.70
2018-09-10T05:58:55.985Z,93.10
2018-09-10T06:01:24.562Z,93.20
2018-09-10T06:03:53.162Z,93.10
2018-09-10T06:06:22.020Z,93.20
2018-09-10T06:08:50.634Z,93.50
2018-09-10T06:11:19.226Z,93.40
2018-09-10T06:13:47.813Z,95.90
2018-09-10T06:16:16.394Z,94.30
2018-09-10T06:18:45.060Z,93.10
2018-09-10T06:21:13.692Z,92.20
2018-09-10T06:23:42.288Z,91.30
2018-09-10T06:26:10.934Z,90.70
2018-09-10T06:28:39.971Z,90.50
2018-09-10T06:31:08.653Z,88.20
2018-09-10T06:33:37.260Z,86.30
2018-09-10T06:36:06.504Z,86.10
2018-09-10T06:38:35.310Z,85.00
2018-09-10T06:41:03.941Z,83.90
2018-09-10T06:43:32.558Z,83.20
2018-09-10T06:46:01.302Z,80.80
2018-09-10T06:48:34.274Z,80.00
2018-09-10T06:51:04.076Z,79.00
2018-09-10T06:53:32.705Z,78.10
2018-09-10T06:56:04.042Z,76.10
2018-09-10T06:58:32.931Z,74.10
2018-09-10T07:01:01.634Z,72.20
2018-09-10T07:03:30.219Z,71.10
2018-09-10T07:05:58.793Z,72.40
2018-09-10T07:08:27.460Z,68.80
2018-09-10T07:10:56.069Z,68.50
2018-09-10T07:13:25.195Z,67.10
2018-09-10T07:15:53.846Z,64.80
2018-09-10T07:18:22.890Z,63.90
2018-09-10T07:20:51.718Z,64.30
2018-09-10T07:23:20.379Z,61.60
2018-09-10T07:25:48.966Z,60.20
2018-09-10T07:28:17.549Z,60.50
2018-09-10T07:30:46.146Z,61.50
2018-09-10T07:33:16.229Z,59.70
2018-09-10T07:35:44.865Z,58.40
2018-09-10T07:38:13.461Z,59.50
2018-09-10T07:40:42.237Z,57.70
2018-09-10T07:43:10.845Z,57.80
2018-09-10T07:45:39.453Z,55.70
2018-09-10T07:48:08.075Z,52.10
2018-09-10T07:50:36.674Z,50.00
2018-09-10T07:53:05.330Z,51.30
2018-09-10T07:55:33.936Z,48.40
2018-09-10T07:58:02.513Z,50.50
2018-09-10T08:00:32.085Z,48.10
2018-09-10T08:03:00.848Z,47.20
2018-09-10T08:05:30.228Z,49.80
2018-09-10T08:07:58.795Z,45.60
2018-09-10T08:10:27.397Z,46.60
2018-09-10T08:12:55.964Z,45.50
2018-09-10T08:15:24.565Z,46.50
2018-09-10T08:17:53.141Z,44.80
2018-09-10T08:20:22.485Z,44.00
2018-09-10T08:22:51.095Z,47.60
2018-09-10T08:25:19.784Z,47.10
2018-09-10T08:27:48.304Z,45.60
2018-09-10T08:30:17.557Z,47.00
2018-09-10T08:32:46.806Z,44.10
2018-09-10T08:35:15.533Z,41.40
2018-09-10T08:37:44.184Z,45.20
2018-09-10T08:40:12.841Z,41.40
2018-09-10T08:42:41.421Z,43.00
2018-09-10T08:45:10.104Z,41.00
2018-09-10T08:47:38.682Z,37.60
2018-09-10T08:50:08.306Z,40.10
2018-09-10T08:52:36.898Z,39.40
2018-09-10T08:55:05.743Z,36.80
2018-09-10T08:57:34.149Z,36.60
2018-09-10T09:00:02.783Z,37.90
2018-09-10T09:02:31.374Z,36.80
2018-09-10T09:05:00.354Z,37.20
2018-09-10T09:07:28.963Z,39.00
2018-09-10T09:09:57.614Z,38.80
2018-09-10T09:12:26.428Z,35.50
2018-09-10T09:14:55.073Z,34.50
2018-09-10T09:17:23.692Z,40.40
2018-09-10T09:19:52.269Z,35.40
2018-09-10T09:22:21.023Z,36.60
2018-09-10T09:24:49.594Z,33.90
2018-09-10T09:27:18.453Z,32.70
2018-09-10T09:29:47.019Z,32.60
2018-09-10T09:32:15.813Z,33.30
2018-09-10T09:34:49.600Z,35.00
2018-09-10T09:37:23.565Z,32.00
2018-09-10T09:39:57.384Z,33.70
2018-09-10T09:42:31.309Z,35.90
2018-09-10T09:45:05.137Z,35.20
2018-09-10T09:47:33.732Z,33.60
2018-09-10T09:50:02.317Z,33.40
2018-09-10T09:52:30.928Z,31.90
2018-09-10T09:55:00.048Z,34.80
2018-09-10T09:57:28.659Z,34.00
2018-09-10T09:59:57.245Z,34.00
2018-09-10T10:02:31.087Z,34.60
2018-09-10T10:04:59.672Z,34.80
2018-09-10T10:07:28.273Z,34.70
2018-09-10T10:09:56.839Z,33.90
2018-09-10T10:12:25.517Z,33.30
2018-09-10T10:14:54.251Z,34.60
2018-09-10T10:17:22.840Z,33.80
2018-09-10T10:19:52.446Z,34.40
2018-09-10T10:22:21.596Z,35.90
2018-09-10T10:24:50.164Z,34.50
2018-09-10T10:27:18.889Z,33.20
2018-09-10T10:29:47.440Z,33.80
2018-09-10T10:32:16.058Z,34.40
2018-09-10T10:34:44.643Z,35.00
2018-09-10T10:37:13.276Z,32.60
2018-09-10T10:39:41.854Z,32.10
2018-09-10T10:42:10.455Z,31.50
2018-09-10T10:44:39.037Z,31.20
2018-09-10T10:47:07.661Z,31.30
2018-09-10T10:49:37.087Z,31.20
2018-09-10T10:52:05.998Z,29.90
2018-09-10T10:54:34.644Z,31.00
2018-09-10T10:57:03.200Z,32.70
2018-09-10T10:59:31.807Z,30.70
2018-09-10T11:02:00.395Z,31.40
2018-09-10T11:04:29.010Z,32.50
2018-09-10T11:06:58.197Z,33.00
2018-09-10T11:09:26.862Z,33.60
2018-09-10T11:11:55.441Z,33.00
2018-09-10T11:14:24.044Z,33.80
2018-09-10T11:16:52.605Z,33.00
2018-09-10T11:19:21.218Z,32.10
2018-09-10T11:21:49.794Z,34.10
2018-09-10T11:24:18.394Z,33.50
2018-09-10T11:26:46.956Z,34.60
2018-09-10T11:29:15.567Z,35.20
2018-09-10T11:31:44.128Z,36.30
2018-09-10T11:34:12.717Z,34.90
2018-09-10T11:36:41.318Z,33.60
2018-09-10T11:39:10.430Z,32.30
2018-09-10T11:41:39.546Z,31.80
2018-09-10T11:44:08.222Z,33.90
2018-09-10T11:46:36.843Z,34.10
2018-09-10T11:49:05.412Z,33.20
2018-09-10T11:51:33.991Z,33.80
2018-09-10T11:54:02.721Z,33.50
2018-09-10T11:56:31.306Z,31.90
2018-09-10T11:58:59.924Z,34.00
2018-09-10T12:01:28.497Z,33.20
2018-09-10T12:03:57.090Z,32.20
2018-09-10T12:06:26.359Z,31.20
2018-09-10T12:08:54.979Z,32.40
2018-09-10T12:11:23.548Z,32.30
2018-09-10T12:13:52.119Z,30.90
2018-09-10T12:16:20.813Z,32.40
2018-09-10T12:18:49.445Z,30.70
2018-09-10T12:21:18.050Z,31.20
2018-09-10T12:23:46.622Z,30.90
2018-09-10T12:26:15.212Z,32.40
2018-09-10T12:28:43.783Z,33.90
2018-09-10T12:31:12.373Z,31.40
2018-09-10T12:33:40.943Z,33.10
2018-09-10T12:36:09.561Z,32.70
2018-09-10T12:38:38.150Z,32.40
2018-09-10T12:41:06.742Z,31.80
2018-09-10T12:43:35.324Z,34.10
2018-09-10T12:46:03.922Z,34.30
2018-09-10T12:48:32.476Z,33.00
2018-09-10T12:51:01.073Z,32.00
2018-09-10T12:53:29.903Z,32.90
2018-09-10T12:55:58.752Z,33.20
2018-09-10T12:58:27.284Z,33.00
2018-09-10T13:00:55.885Z,33.30
2018-09-10T13:03:24.515Z,34.10
2018-09-10T13:05:53.104Z,33.00
2018-09-10T13:08:22.487Z,34.10
2018-09-10T13:10:51.149Z,33.40
2018-09-10T13:13:19.688Z,33.80
2018-09-10T13:15:48.290Z,33.80
2018-09-10T13:18:16.864Z,32.00
2018-09-10T13:20:45.450Z,32.30
2018-09-10T13:23:14.016Z,31.00
2018-09-10T13:25:42.604Z,34.20
2018-09-10T13:28:11.180Z,32.80
2018-09-10T13:30:39.784Z,32.90
2018-09-10T13:33:10.037Z,31.90
2018-09-10T13:35:38.630Z,32.40
2018-09-10T13:38:08.269Z,33.10
2018-09-10T13:40:36.864Z,33.70
2018-09-10T13:43:05.587Z,34.00
2018-09-10T13:45:34.166Z,33.60
2018-09-10T13:48:03.007Z,33.40
2018-09-10T13:50:31.565Z,32.80
2018-09-10T13:53:00.155Z,33.80
2018-09-10T13:55:28.738Z,33.70
2018-09-10T13:57:57.350Z,34.40
2018-09-10T14:00:32.592Z,34.50
2018-09-10T14:03:01.198Z,34.70
2018-09-10T14:05:29.765Z,34.90
2018-09-10T14:07:58.366Z,32.60
2018-09-10T14:10:27.322Z,34.30
2018-09-10T14:12:55.904Z,35.30
2018-09-10T14:15:24.476Z,35.60
2018-09-10T14:17:53.133Z,35.40
2018-09-10T14:20:22.713Z,35.20
2018-09-10T14:22:56.377Z,34.90
2018-09-10T14:25:25.010Z,33.90
2018-09-10T14:27:53.597Z,34.70
2018-09-10T14:30:23.123Z,35.00
2018-09-10T14:32:51.724Z,35.10
2018-09-10T14:35:20.887Z,33.10
2018-09-10T14:37:49.909Z,33.10
2018-09-10T14:40:18.492Z,34.80
2018-09-10T14:42:47.231Z,34.40
2018-09-10T14:45:15.782Z,34.70
2018-09-10T14:47:44.365Z,34.40
2018-09-10T14:50:12.924Z,33.70
2018-09-10T14:52:41.517Z,34.50
2018-09-10T14:55:10.117Z,34.60
2018-09-10T14:57:39.246Z,35.50
2018-09-10T15:00:07.906Z,34.50
2018-09-10T15:02:36.502Z,35.90
2018-09-10T15:05:05.550Z,35.10
2018-09-10T15:07:34.374Z,35.70
2018-09-10T15:10:03.040Z,34.90
2018-09-10T15:12:31.641Z,34.90
2018-09-10T15:15:00.255Z,35.60
2018-09-10T15:17:28.874Z,35.70
2018-09-10T15:19:57.502Z,35.50
2018-09-10T15:22:26.140Z,36.80
2018-09-10T15:24:54.753Z,34.50
2018-09-10T15:27:23.425Z,34.70
2018-09-10T15:29:52.076Z,35.90
2018-09-10T15:32:21.546Z,36.80
2018-09-10T15:34:50.646Z,36.50
2018-09-10T15:37:19.256Z,37.10
2018-09-10T15:39:47.849Z,37.00
2018-09-10T15:42:16.430Z,37.30
2018-09-10T15:44:45.016Z,36.90
2018-09-10T15:47:13.593Z,36.30
2018-09-10T15:49:42.186Z,36.20
2018-09-10T15:52:10.762Z,36.70
2018-09-10T15:54:39.355Z,36.90
2018-09-10T15:57:07.921Z,37.00
2018-09-10T15:59:36.496Z,37.50
2018-09-10T16:02:05.457Z,37.40
2018-09-10T16:04:34.053Z,37.30
2018-09-10T16:07:02.629Z,38.20
2018-09-10T16:09:31.225Z,37.20
2018-09-10T16:11:59.830Z,37.40
2018-09-10T16:14:28.420Z,38.50
2018-09-10T16:16:57.039Z,38.20
2018-09-10T16:19:25.597Z,38.60
2018-09-10T16:21:54.160Z,38.50
2018-09-10T16:24:22.784Z,38.80
2018-09-10T16:26:51.368Z,38.00
2018-09-10T16:29:19.959Z,38.30
2018-09-10T16:31:48.534Z,38.40
2018-09-10T16:34:17.122Z,41.10
2018-09-10T16:36:45.736Z,43.20
2018-09-10T16:39:14.381Z,43.70
2018-09-10T16:41:42.995Z,45.20
2018-09-10T16:44:11.580Z,46.70
2018-09-10T16:46:40.141Z,46.70
2018-09-10T16:49:08.761Z,47.80
2018-09-10T16:51:37.336Z,48.60
2018-09-10T16:54:05.968Z,48.80
2018-09-10T16:56:34.530Z,49.50
2018-09-10T16:59:03.105Z,51.10
2018-09-10T17:01:31.826Z,50.20
2018-09-10T17:04:00.542Z,50.80
2018-09-10T17:06:29.145Z,51.20
2018-09-10T17:08:57.724Z,51.80
2018-09-10T17:11:26.345Z,52.20
2018-09-10T17:13:54.961Z,52.40
2018-09-10T17:16:23.634Z,53.30
2018-09-10T17:18:52.315Z,53.10
2018-09-10T17:21:21.374Z,53.20
2018-09-10T17:23:50.026Z,54.20
2018-09-10T17:26:18.630Z,54.20
2018-09-10T17:28:47.328Z,54.90
2018-09-10T17:31:16.632Z,55.60
2018-09-10T17:33:45.210Z,54.90
2018-09-10T17:36:13.906Z,56.00
2018-09-10T17:38:42.564Z,55.90
2018-09-10T17:41:11.154Z,56.00
2018-09-10T17:43:39.723Z,56.50
2018-09-10T17:46:08.345Z,56.50
2018-09-10T17:48:36.925Z,56.70
2018-09-10T17:51:05.552Z,56.90
2018-09-10T17:53:34.170Z,57.30
2018-09-10T17:56:02.757Z,57.60
2018-09-10T17:58:31.333Z,57.50
2018-09-10T18:00:59.946Z,58.10
2018-09-10T18:03:28.521Z,58.30
2018-09-10T18:05:57.115Z,57.90
2018-09-10T18:08:25.761Z,58.70
2018-09-10T18:10:54.424Z,59.40
2018-09-10T18:13:22.988Z,60.20
2018-09-10T18:15:51.643Z,60.10
2018-09-10T18:18:20.349Z,59.70
2018-09-10T18:20:48.924Z,60.90
2018-09-10T18:23:17.593Z,60.60
2018-09-10T18:25:46.173Z,61.10
2018-09-10T18:28:15.430Z,62.60
2018-09-10T18:30:44.009Z,61.70
2018-09-10T18:33:13.440Z,61.80
2018-09-10T18:35:43.666Z,62.20
2018-09-10T18:38:12.340Z,62.60
2018-09-10T18:40:42.318Z,59.80
2018-09-10T18:43:11.098Z,63.20
2018-09-10T18:45:39.681Z,62.30
2018-09-10T18:48:09.343Z,62.50
2018-09-10T18:50:37.925Z,62.60
2018-09-10T18:53:07.060Z,65.10
2018-09-10T18:55:35.633Z,64.30
2018-09-10T18:58:04.464Z,64.70
2018-09-10T19:00:33.174Z,64.20
2018-09-10T19:03:01.836Z,64.70
2018-09-10T19:05:33.193Z,64.20
2018-09-10T19:08:01.778Z,65.60
2018-09-10T19:10:31.773Z,66.60
2018-09-10T19:13:01.087Z,66.10
2018-09-10T19:15:30.221Z,64.70
2018-09-10T19:17:59.588Z,66.10
2018-09-10T19:20:29.667Z,66.10
2018-09-10T19:22:59.559Z,66.90
2018-09-10T19:25:28.474Z,65.90
2018-09-10T19:27:57.200Z,66.00
2018-09-10T19:30:26.315Z,66.90
2018-09-10T19:32:55.655Z,66.30
2018-09-10T19:35:24.650Z,68.40
2018-09-10T19:37:53.797Z,67.90
2018-09-10T19:40:23.081Z,67.80
2018-09-10T19:42:53.085Z,67.60
2018-09-10T19:45:21.770Z,66.40
2018-09-10T19:47:50.798Z,69.20
2018-09-10T19:50:20.216Z,69.30
2018-09-10T19:52:49.078Z,69.60
2018-09-10T19:55:18.009Z,69.10
2018-09-10T19:57:47.434Z,70.50
2018-09-10T20:00:17.050Z,70.30
2018-09-10T20:02:46.683Z,69.70
2018-09-10T20:05:16.008Z,71.50
2018-09-10T20:07:44.614Z,69.40
2018-09-10T20:10:13.569Z,73.70
2018-09-10T20:12:43.769Z,71.60
2018-09-10T20:15:13.481Z,71.40
2018-09-10T20:17:43.312Z,71.70
2018-09-10T20:20:13.087Z,71.50
2018-09-10T20:22:42.197Z,72.70
2018-09-10T20:25:10.800Z,71.70
2018-09-10T20:27:40.125Z,72.10
2018-09-10T20:30:08.990Z,71.80
2018-09-10T20:32:38.061Z,72.60
2018-09-10T20:35:07.550Z,72.50
2018-09-10T20:37:36.148Z,72.30
2018-09-10T20:40:05.317Z,72.10
2018-09-10T20:42:35.093Z,71.20
2018-09-10T20:45:04.159Z,73.00
2018-09-10T20:47:33.099Z,73.10
2018-09-10T20:50:02.613Z,72.90
2018-09-10T20:52:31.418Z,73.40
2018-09-10T20:55:00.699Z,74.80
2018-09-10T20:57:29.713Z,74.70
2018-09-10T20:59:58.814Z,74.80
2018-09-10T21:02:29.247Z,75.30
2018-09-10T21:04:59.536Z,75.20
2018-09-10T21:07:28.296Z,75.10
2018-09-10T21:09:56.877Z,75.80
2018-09-10T21:12:25.462Z,75.70
2018-09-10T21:14:54.149Z,75.40
2018-09-10T21:17:22.906Z,75.30
2018-09-10T21:19:51.554Z,75.20
2018-09-10T21:22:20.260Z,74.00
2018-09-10T21:24:48.854Z,75.90
2018-09-10T21:27:17.404Z,75.60
2018-09-10T21:29:46.014Z,76.90
2018-09-10T21:32:14.577Z,76.80
2018-09-10T21:34:43.176Z,77.70
2018-09-10T21:37:11.888Z,77.70
2018-09-10T21:39:40.506Z,76.40
2018-09-10T21:42:09.124Z,76.60
2018-09-10T21:44:37.731Z,78.10
2018-09-10T21:47:06.464Z,76.20
2018-09-10T21:49:35.073Z,78.40
2018-09-10T21:52:03.657Z,78.00
2018-09-10T21:54:32.261Z,78.30
2018-09-10T21:57:00.885Z,77.70
2018-09-10T21:59:29.501Z,79.40
2018-09-10T22:01:58.102Z,77.60
2018-09-10T22:04:26.709Z,75.60
2018-09-10T22:06:55.349Z,76.00
2018-09-10T22:09:23.976Z,78.80
2018-09-10T22:11:57.988Z,80.30
2018-09-10T22:14:26.622Z,82.40
2018-09-10T22:16:55.204Z,80.60
2018-09-10T22:19:23.844Z,80.60
2018-09-10T22:21:52.525Z,79.50
2018-09-10T22:24:21.700Z,79.40
2018-09-10T22:26:50.305Z,80.00
2018-09-10T22:29:19.264Z,81.80
2018-09-10T22:31:48.181Z,81.90
2018-09-10T22:34:16.747Z,81.20
2018-09-10T22:36:45.372Z,81.30
2018-09-10T22:39:14.922Z,82.20
2018-09-10T22:41:44.038Z,80.00
2018-09-10T22:44:12.681Z,80.60
2018-09-10T22:46:41.282Z,81.50
2018-09-10T22:49:09.917Z,83.40
2018-09-10T22:51:38.872Z,80.50
2018-09-10T22:54:07.995Z,81.40
2018-09-10T22:56:36.599Z,79.00
2018-09-10T22:59:05.213Z,83.50
2018-09-10T23:01:33.799Z,84.00
2018-09-10T23:04:02.424Z,82.70
2018-09-10T23:06:31.042Z,82.30
2018-09-10T23:08:59.615Z,82.20
2018-09-10T23:11:28.209Z,81.10
2018-09-10T23:13:56.784Z,84.10
2018-09-10T23:16:25.388Z,81.70
2018-09-10T23:18:53.962Z,83.00
2018-09-10T23:21:22.559Z,81.00
2018-09-10T23:23:51.132Z,81.70
2018-09-10T23:26:19.867Z,83.70
2018-09-10T23:28:48.570Z,82.10
2018-09-10T23:31:17.148Z,83.80
2018-09-10T23:33:45.772Z,82.20
2018-09-10T23:36:14.368Z,83.90
2018-09-10T23:38:43.101Z,85.20
2018-09-10T23:41:11.707Z,84.10
2018-09-10T23:43:40.358Z,84.60
2018-09-10T23:46:09.085Z,84.60
2018-09-10T23:48:37.660Z,86.40
2018-09-10T23:51:06.334Z,85.00
2018-09-10T23:53:34.936Z,86.90
2018-09-10T23:56:03.508Z,85.20
2018-09-10T23:58:32.146Z,84.10
